Time;durP1;ratioP1;P1;durP2;ratioP2;P2;SDS_P1;SDS_P2;PMS_P1;PMS_P2;Temp;Humidity;BMP_temperature;BMP_pressure;BME280_temperature;BME280_humidity;BME280_pressure;Samples;Min_cycle;Max_cycle;Signal;HPM_P1;HPM_P2
2021/06/10 00:00:26;;;;;;;13.60;11.93;;;;;;;16.38;100.00;100760.91;2043692;29;20027;-62
2021/06/10 00:01:26;;;;;;;12.87;11.53;;;;;;;16.37;100.00;100761.84;2043933;28;20023;-62
2021/06/10 00:02:27;;;;;;;17.33;12.13;;;;;;;16.36;100.00;100760.13;2040879;29;20030;-62
2021/06/10 00:03:28;;;;;;;13.60;12.30;;;;;;;16.39;100.00;100759.13;2041785;29;20491;-62
2021/06/10 00:04:28;;;;;;;16.40;12.37;;;;;;;16.38;100.00;100754.78;2044501;29;20035;-62
2021/06/10 00:05:28;;;;;;;14.10;12.60;;;;;;;16.35;100.00;100753.16;2044549;29;20275;-62
2021/06/10 00:06:29;;;;;;;15.70;12.07;;;;;;;16.36;100.00;100759.28;2043611;29;20114;-62
2021/06/10 00:07:29;;;;;;;13.37;12.03;;;;;;;16.38;100.00;100760.91;2041276;29;20032;-62
2021/06/10 00:08:29;;;;;;;14.10;12.20;;;;;;;16.32;100.00;100751.53;2041461;29;20035;-62
2021/06/10 00:09:30;;;;;;;14.20;12.23;;;;;;;16.30;100.00;100763.06;2043332;28;20045;-62
2021/06/10 00:10:31;;;;;;;16.20;12.88;;;;;;;16.22;100.00;100754.63;2044514;29;20090;-62
2021/06/10 00:11:32;;;;;;;14.65;12.73;;;;;;;16.25;100.00;100758.00;2042370;29;20042;-62
2021/06/10 00:12:32;;;;;;;18.23;12.33;;;;;;;16.22;100.00;100754.63;2044288;29;20157;-62
2021/06/10 00:13:32;;;;;;;15.03;13.27;;;;;;;16.25;100.00;100765.00;2042679;29;20409;-62
2021/06/10 00:14:33;;;;;;;17.10;12.93;;;;;;;16.21;100.00;100760.84;2044250;29;20051;-62
2021/06/10 00:15:35;;;;;;;14.35;12.10;;;;;;;16.24;100.00;100760.69;2043489;29;20063;-63
2021/06/10 00:16:35;;;;;;;16.40;12.00;;;;;;;16.26;100.00;100761.47;2044096;29;20043;-62
2021/06/10 00:17:36;;;;;;;13.70;11.90;;;;;;;16.24;100.00;100760.69;2043392;29;20027;-62
2021/06/10 00:18:36;;;;;;;12.82;11.02;;;;;;;16.27;100.00;100757.91;2044446;28;20052;-62
2021/06/10 00:19:37;;;;;;;12.57;10.73;;;;;;;16.27;100.00;100764.00;2041788;29;20027;-62
2021/06/10 00:20:39;;;;;;;12.50;10.90;;;;;;;16.23;100.00;100759.84;2041954;29;20024;-62
2021/06/10 00:21:42;;;;;;;13.13;10.05;;;;;;;16.24;100.00;100760.69;2040815;29;20027;-62
2021/06/10 00:22:43;;;;;;;13.00;10.82;;;;;;;16.31;99.48;100762.13;2042517;28;20035;-62
2021/06/10 00:23:44;;;;;;;12.68;10.10;;;;;;;16.29;99.52;100753.44;2041952;28;20511;-62
2021/06/10 00:24:44;;;;;;;14.13;10.50;;;;;;;16.25;99.94;100759.75;2043916;29;20516;-62
2021/06/10 00:25:44;;;;;;;11.97;10.67;;;;;;;16.21;99.88;100756.41;2041515;29;20432;-62
2021/06/10 00:26:45;;;;;;;19.30;10.73;;;;;;;16.24;99.70;100758.03;2044061;29;20496;-62
2021/06/10 00:27:45;;;;;;;13.67;10.23;;;;;;;16.32;99.21;100762.06;2042634;28;20033;-62
2021/06/10 00:28:45;;;;;;;12.33;11.03;;;;;;;16.24;99.88;100752.78;2046739;28;20451;-62
2021/06/10 00:29:50;;;;;;;13.40;10.57;;;;;;;16.23;99.96;100754.56;2042025;29;20473;-62
2021/06/10 00:30:50;;;;;;;13.40;10.43;;;;;;;16.26;99.51;100761.47;2042146;29;20061;-62
2021/06/10 00:31:50;;;;;;;12.23;10.87;;;;;;;16.30;99.77;100763.06;2043799;29;20030;-62
2021/06/10 00:32:52;;;;;;;12.27;10.70;;;;;;;16.30;99.75;100769.16;2042324;29;20031;-62
2021/06/10 00:33:52;;;;;;;;;;;;;;;16.22;99.58;100762.50;2040359;29;20114;-62
2021/06/10 00:34:52;;;;;;;13.55;10.55;;;;;;;16.19;100.00;100763.50;2046504;29;20347;-61
2021/06/10 00:35:53;;;;;;;15.80;11.03;;;;;;;16.29;100.00;100761.34;2046392;29;20088;-62
2021/06/10 00:36:53;;;;;;;13.77;10.90;;;;;;;16.21;100.00;100760.84;2038449;29;20075;-62
2021/06/10 00:37:57;;;;;;;12.05;10.80;;;;;;;16.22;100.00;100755.50;2041425;29;20500;-62
2021/06/10 00:38:57;;;;;;;15.45;11.52;;;;;;;16.18;100.00;100757.41;2042818;29;20039;-62
2021/06/10 00:39:57;;;;;;;12.97;10.77;;;;;;;16.17;100.00;100760.97;2046602;28;20030;-62
2021/06/10 00:40:58;;;;;;;14.07;10.60;;;;;;;16.15;100.00;100752.28;2047410;28;20100;-62
2021/06/10 00:41:58;;;;;;;15.43;11.10;;;;;;;16.10;100.00;100759.53;2046617;28;20444;-62
2021/06/10 00:42:59;;;;;;;13.13;11.33;;;;;;;16.06;100.00;100757.94;2046827;28;20046;-62
2021/06/10 00:44:00;;;;;;;12.32;11.13;;;;;;;16.02;100.00;100754.59;2046828;28;20463;-62
2021/06/10 00:45:01;;;;;;;12.30;11.10;;;;;;;16.06;100.00;100760.59;2046636;29;20035;-62
2021/06/10 00:46:01;;;;;;;15.27;11.93;;;;;;;16.03;100.00;100761.56;2047074;29;20026;-62
2021/06/10 00:47:02;;;;;;;14.23;12.00;;;;;;;16.02;100.00;100759.00;2047016;29;20114;-62
2021/06/10 00:48:03;;;;;;;14.95;11.60;;;;;;;16.02;100.00;100754.59;2046902;29;20031;-62
2021/06/10 00:49:03;;;;;;;15.55;12.07;;;;;;;16.10;100.00;100756.03;2046524;28;20483;-62
2021/06/10 00:50:05;;;;;;;13.03;11.60;;;;;;;16.06;100.00;100757.94;2047331;29;20023;-62
2021/06/10 00:51:07;;;;;;;13.60;11.80;;;;;;;16.00;100.00;100756.44;2046341;29;20039;-62
2021/06/10 00:52:07;;;;;;;;;;;;;;;15.99;100.00;100760.00;2046377;29;20057;-62
2021/06/10 00:53:08;;;;;;;15.25;12.05;;;;;;;16.02;100.00;100759.88;2046354;29;19911;-62
2021/06/10 00:54:08;;;;;;;16.67;11.98;;;;;;;16.00;100.00;100755.59;2047258;28;20058;-62
2021/06/10 00:55:09;;;;;;;13.97;12.33;;;;;;;15.98;100.00;100753.03;2047253;28;20098;-62
2021/06/10 00:56:11;;;;;;;13.75;12.02;;;;;;;15.97;100.00;100761.81;2047019;28;20038;-62
2021/06/10 00:57:11;;;;;;;16.58;12.68;;;;;;;15.90;100.00;100757.78;2047037;28;20027;-62
2021/06/10 00:58:12;;;;;;;15.60;11.87;;;;;;;15.94;100.00;100766.38;2046960;28;20062;-62
2021/06/10 00:59:12;;;;;;;15.70;12.83;;;;;;;15.95;100.00;100771.59;2047154;28;20055;-62
2021/06/10 01:00:15;;;;;;;15.82;12.75;;;;;;;15.98;100.00;100763.53;2046972;28;20459;-62
2021/06/10 01:01:15;;;;;;;21.27;13.20;;;;;;;15.97;100.00;100756.56;2047147;28;20027;-62
2021/06/10 01:02:16;;;;;;;13.80;12.50;;;;;;;15.96;100.00;100772.41;2046798;29;20040;-62
2021/06/10 01:03:16;;;;;;;15.17;13.20;;;;;;;15.94;100.00;100769.88;2046078;28;20185;-61
2021/06/10 01:04:17;;;;;;;14.70;12.20;;;;;;;15.91;100.00;100766.53;2045549;28;20027;-62
2021/06/10 01:05:17;;;;;;;14.90;11.90;;;;;;;15.85;100.00;100772.91;2046140;28;20054;-62
2021/06/10 01:06:32;;;;;;;13.15;11.85;;;;;;;15.81;100.00;100773.91;2039317;29;20031;-62
2021/06/10 01:07:47;;;;;;;15.18;13.18;;;;;;;15.81;100.00;100772.16;2039917;29;20087;-62
2021/06/10 01:09:03;;;;;;;14.25;12.95;;;;;;;15.78;100.00;100772.28;2039023;28;20023;-62
2021/06/10 01:10:13;;;;;;;14.48;12.98;;;;;;;15.76;100.00;100771.47;2046348;28;20039;-62
2021/06/10 01:11:31;;;;;;;14.18;12.70;;;;;;;15.72;100.00;100764.66;2047287;28;20030;-62
2021/06/10 01:12:35;;;;;;;16.52;12.88;;;;;;;15.69;100.00;100767.41;2047308;29;20697;-62
2021/06/10 01:13:43;;;;;;;14.05;12.65;;;;;;;15.68;100.00;100763.91;2046761;29;20031;-62
2021/06/10 01:14:49;;;;;;;16.13;12.23;;;;;;;15.64;100.00;100764.97;2047542;29;20503;-62
2021/06/10 01:15:53;;;;;;;14.85;13.35;;;;;;;15.66;100.00;100764.91;2047096;29;20081;-62
2021/06/10 01:16:55;;;;;;;14.43;12.93;;;;;;;15.64;100.00;100762.34;2047103;29;20118;-62
2021/06/10 01:17:55;;;;;;;15.27;13.68;;;;;;;15.66;100.00;100762.28;2046880;28;20042;-62
2021/06/10 01:19:00;;;;;;;17.03;13.37;;;;;;;15.63;100.00;100759.78;2047426;29;20066;-62
2021/06/10 01:20:26;;;;;;;15.27;13.68;;;;;;;15.60;100.00;100757.28;2047261;28;20043;-62
2021/06/10 01:21:26;;;;;;;15.13;12.98;;;;;;;15.59;100.00;100760.84;2047495;28;20114;-62
2021/06/10 01:22:27;;;;;;;14.38;12.88;;;;;;;15.57;100.00;100761.75;2047162;29;20068;-62
2021/06/10 01:23:46;;;;;;;15.03;13.43;;;;;;;15.55;100.00;100766.22;2046583;29;20384;-62
2021/06/10 01:24:57;;;;;;;15.48;13.68;;;;;;;15.59;100.00;100758.22;2047360;29;20050;-62
2021/06/10 01:26:01;;;;;;;15.35;13.85;;;;;;;15.60;100.00;100759.91;2047537;28;20385;-62
2021/06/10 01:27:32;;;;;;;16.77;13.60;;;;;;;15.62;100.00;100760.72;2047510;28;20047;-62
2021/06/10 01:28:35;;;;;;;16.70;13.45;;;;;;;15.55;100.00;100755.69;2047203;29;20038;-62
2021/06/10 01:29:38;;;;;;;16.90;13.10;;;;;;;15.54;100.00;100751.38;2047512;29;20038;-62
2021/06/10 01:30:47;;;;;;;18.83;14.15;;;;;;;15.63;100.00;100758.00;2046823;29;20060;-62
2021/06/10 01:31:47;;;;;;;16.25;13.80;;;;;;;15.54;100.00;100753.16;2046920;29;20440;-61
2021/06/10 01:32:52;;;;;;;16.60;14.00;;;;;;;15.50;100.00;100757.69;2046763;28;20019;-62
2021/06/10 01:33:57;;;;;;;19.42;13.20;;;;;;;15.46;100.00;100755.25;2047719;28;20122;-61
2021/06/10 01:34:59;;;;;;;16.70;13.90;;;;;;;15.43;100.00;100756.22;2048774;28;20030;-61
2021/06/10 01:36:10;;;;;;;18.85;14.15;;;;;;;15.42;100.00;100757.16;2047871;29;20027;-62
2021/06/10 01:37:11;;;;;;;16.90;14.80;;;;;;;15.43;100.00;100752.75;2048904;29;20042;-62
2021/06/10 01:38:12;;;;;;;17.35;15.00;;;;;;;15.38;100.00;100758.19;2047670;29;20035;-62
2021/06/10 01:39:19;;;;;;;17.75;15.43;;;;;;;15.39;100.00;100759.91;2047686;29;20539;-62
2021/06/10 01:40:22;;;;;;;15.68;14.18;;;;;;;15.41;100.00;100758.06;2047531;29;20027;-62
2021/06/10 01:41:24;;;;;;;17.13;15.20;;;;;;;15.43;100.00;100761.47;2048318;29;20463;-62
2021/06/10 01:42:24;;;;;;;17.98;14.80;;;;;;;15.41;100.00;100761.53;2048119;29;20035;-62
2021/06/10 01:43:29;;;;;;;18.15;14.65;;;;;;;15.39;100.00;100759.91;2048849;29;20146;-62
2021/06/10 01:44:31;;;;;;;19.40;14.98;;;;;;;15.39;100.00;100759.91;2048628;29;20170;-62
2021/06/10 01:45:33;;;;;;;17.27;15.00;;;;;;;15.39;100.00;100759.91;2048561;28;20035;-62
2021/06/10 01:46:35;;;;;;;16.80;14.52;;;;;;;15.35;100.00;100759.19;2048284;29;20030;-62
2021/06/10 01:47:37;;;;;;;19.63;14.45;;;;;;;15.32;100.00;100759.28;2048643;29;20236;-62
2021/06/10 01:48:45;;;;;;;16.88;14.95;;;;;;;15.31;100.00;100762.00;2048346;29;20035;-62
2021/06/10 01:49:45;;;;;;;18.65;15.35;;;;;;;15.31;100.00;100764.63;2047597;29;20039;-62
2021/06/10 01:50:51;;;;;;;18.83;15.03;;;;;;;15.32;100.00;100758.44;2047927;29;20419;-61
2021/06/10 01:51:53;;;;;;;17.23;15.27;;;;;;;15.29;100.00;100755.94;2047424;29;20115;-62
2021/06/10 01:52:55;;;;;;;18.02;14.80;;;;;;;15.29;100.00;100764.66;2046968;29;20015;-62
2021/06/10 01:53:59;;;;;;;18.45;15.65;;;;;;;15.26;100.00;100764.81;2046446;29;20019;-62
2021/06/10 01:55:01;;;;;;;17.38;15.25;;;;;;;15.34;100.00;100764.47;2040261;29;20032;-62
2021/06/10 01:56:02;;;;;;;17.20;15.45;;;;;;;15.25;100.00;100769.19;2042684;29;20388;-62
2021/06/10 01:57:04;;;;;;;18.48;15.38;;;;;;;15.21;100.00;100767.63;2048228;28;20497;-62
2021/06/10 01:58:05;;;;;;;16.60;14.90;;;;;;;15.16;100.00;100766.94;2048408;28;20110;-62
2021/06/10 01:59:06;;;;;;;20.20;16.13;;;;;;;15.12;100.00;100768.00;2048147;28;20392;-62
2021/06/10 02:00:08;;;;;;;17.92;15.45;;;;;;;15.10;100.00;100761.94;2048426;28;20126;-62
2021/06/10 02:01:10;;;;;;;16.80;15.00;;;;;;;15.07;100.00;100764.69;2048086;28;20042;-62
2021/06/10 02:02:11;;;;;;;19.65;16.00;;;;;;;15.06;100.00;100763.84;2048026;28;20034;-62
2021/06/10 02:03:12;;;;;;;19.60;17.33;;;;;;;15.09;100.00;100760.22;2047947;29;20111;-62
2021/06/10 02:04:14;;;;;;;21.75;17.20;;;;;;;15.04;100.00;100760.41;2048530;29;20035;-62
2021/06/10 02:05:15;;;;;;;18.92;16.08;;;;;;;15.04;100.00;100763.03;2047900;28;20034;-62
2021/06/10 02:06:17;;;;;;;25.08;16.83;;;;;;;15.00;100.00;100765.84;2048366;28;20057;-62
2021/06/10 02:07:20;;;;;;;19.63;17.17;;;;;;;15.03;100.00;100758.69;2048312;29;20259;-61
2021/06/10 02:08:21;;;;;;;21.30;17.65;;;;;;;15.02;100.00;100759.63;2048335;29;20093;-62
2021/06/10 02:09:22;;;;;;;21.75;17.98;;;;;;;15.03;100.00;100760.50;2048108;28;20058;-61
2021/06/10 02:10:25;;;;;;;19.30;17.23;;;;;;;15.03;100.00;100763.94;2048363;28;20087;-61
2021/06/10 02:11:26;;;;;;;20.90;17.73;;;;;;;15.12;100.00;100768.00;2048303;29;20090;-62
2021/06/10 02:12:26;;;;;;;24.52;18.48;;;;;;;15.07;100.00;100765.56;2048060;29;20039;-62
2021/06/10 02:13:30;;;;;;;23.40;20.33;;;;;;;15.12;100.00;100764.50;2047891;29;20837;-62
2021/06/10 02:14:31;;;;;;;23.10;19.33;;;;;;;15.13;100.00;100759.22;2047958;29;20078;-62
2021/06/10 02:15:32;;;;;;;24.75;19.38;;;;;;;15.13;100.00;100758.34;2048253;29;20114;-62
2021/06/10 02:16:33;;;;;;;;;;;;;;;15.14;100.00;100766.13;2048406;28;20035;-62
2021/06/10 02:17:35;;;;;;;25.05;19.15;;;;;;;15.17;100.00;100766.03;2048040;29;19922;-61
2021/06/10 02:18:38;;;;;;;23.45;19.65;;;;;;;15.16;100.00;100764.31;2047972;29;20369;-62
2021/06/10 02:19:39;;;;;;;23.33;20.33;;;;;;;15.13;100.00;100764.47;2048348;29;20034;-62
2021/06/10 02:20:39;;;;;;;22.97;19.63;;;;;;;15.17;100.00;100766.03;2048126;29;20054;-62
2021/06/10 02:21:40;;;;;;;25.27;20.00;;;;;;;15.14;100.00;100760.88;2046245;29;20283;-62
2021/06/10 02:22:40;;;;;;;30.43;20.87;;;;;;;15.14;100.00;100760.88;2040023;29;20032;-61
2021/06/10 02:23:42;;;;;;;23.07;19.73;;;;;;;15.11;100.00;100763.66;2045141;29;20087;-62
2021/06/10 02:24:43;;;;;;;26.08;20.73;;;;;;;15.10;100.00;100760.16;2048084;29;20274;-61
2021/06/10 02:25:43;;;;;;;27.17;21.00;;;;;;;15.12;100.00;100754.88;2047571;29;20440;-61
2021/06/10 02:26:44;;;;;;;27.87;21.47;;;;;;;15.11;100.00;100761.03;2047557;29;20122;-61
2021/06/10 02:27:45;;;;;;;28.17;20.73;;;;;;;15.09;100.00;100766.31;2048260;28;20043;-61
2021/06/10 02:28:45;;;;;;;31.37;22.37;;;;;;;15.08;100.00;100759.41;2048080;28;20032;-61
2021/06/10 02:29:46;;;;;;;27.90;21.40;;;;;;;15.06;100.00;100758.59;2048478;28;20332;-61
2021/06/10 02:30:46;;;;;;;26.30;21.50;;;;;;;15.07;100.00;100762.06;2048221;28;20031;-62
2021/06/10 02:31:46;;;;;;;26.30;20.90;;;;;;;15.06;100.00;100752.47;2046962;28;20173;-61
2021/06/10 02:32:47;;;;;;;26.53;21.67;;;;;;;15.13;100.00;100753.09;2040096;29;20477;-62
2021/06/10 02:33:48;;;;;;;26.47;22.23;;;;;;;15.11;100.00;100745.28;2043997;29;20523;-62
2021/06/10 02:34:49;;;;;;;;;;;;;;;15.07;100.00;100748.94;2048618;28;20027;-62
2021/06/10 02:35:49;;;;;;;33.15;23.48;;;;;;;15.08;100.00;100746.25;2048243;29;19910;-62
2021/06/10 02:36:50;;;;;;;30.03;22.77;;;;;;;15.07;100.00;100748.94;2047781;28;20166;-62
2021/06/10 02:37:54;;;;;;;28.52;22.63;;;;;;;15.06;100.00;100747.22;2047782;28;20031;-62
2021/06/10 02:39:03;;;;;;;30.63;22.70;;;;;;;15.09;100.00;100747.09;2047897;28;20042;-62
2021/06/10 02:40:09;;;;;;;29.88;23.58;;;;;;;15.07;100.00;100741.94;2048184;28;20057;-62
2021/06/10 02:41:11;;;;;;;29.25;23.00;;;;;;;15.08;100.00;100742.75;2048125;28;20027;-62
2021/06/10 02:42:13;;;;;;;31.38;24.30;;;;;;;15.03;100.00;100739.50;2047720;28;20488;-62
2021/06/10 02:43:13;;;;;;;28.67;23.10;;;;;;;15.07;100.00;100743.69;2047355;28;20086;-62
2021/06/10 02:44:14;;;;;;;30.55;23.50;;;;;;;15.03;100.00;100742.13;2047679;28;20113;-62
2021/06/10 02:45:15;;;;;;;30.88;23.80;;;;;;;15.04;100.00;100747.28;2047267;28;20592;-62
2021/06/10 02:46:16;;;;;;;30.58;23.95;;;;;;;15.04;100.00;100749.03;2047071;28;20038;-62
2021/06/10 02:47:19;;;;;;;28.65;23.77;;;;;;;14.98;100.00;100742.31;2047019;28;20039;-63
2021/06/10 02:48:21;;;;;;;32.65;24.25;;;;;;;14.96;100.00;100749.38;2047963;29;20033;-62
2021/06/10 02:49:23;;;;;;;30.42;23.73;;;;;;;14.95;100.00;100739.78;2047364;29;20487;-62
2021/06/10 02:50:26;;;;;;;32.55;24.85;;;;;;;14.97;100.00;100753.72;2046549;29;20065;-62
2021/06/10 02:51:32;;;;;;;36.20;25.70;;;;;;;14.94;100.00;100753.81;2046845;29;20424;-62
2021/06/10 02:52:35;;;;;;;31.67;25.55;;;;;;;14.97;100.00;100752.84;2042369;29;20049;-62
2021/06/10 02:53:36;;;;;;;35.35;25.75;;;;;;;14.98;100.00;100755.41;2039448;29;20020;-62
2021/06/10 02:54:37;;;;;;;35.33;25.90;;;;;;;14.99;100.00;100756.25;2046725;29;20058;-62
2021/06/10 02:55:37;;;;;;;30.87;25.00;;;;;;;14.98;100.00;100755.41;2047737;29;20042;-62
2021/06/10 02:56:38;;;;;;;33.00;24.67;;;;;;;15.02;100.00;100757.00;2047918;29;20027;-62
2021/06/10 02:57:45;;;;;;;32.63;25.10;;;;;;;14.99;100.00;100756.25;2047790;28;20404;-62
2021/06/10 02:58:47;;;;;;;33.97;25.85;;;;;;;14.98;100.00;100763.31;2047873;29;20509;-63
2021/06/10 02:59:50;;;;;;;36.17;26.35;;;;;;;14.94;100.00;100764.31;2047635;29;20105;-62
2021/06/10 03:00:51;;;;;;;35.65;26.50;;;;;;;14.90;100.00;100758.34;2047904;29;20098;-62
2021/06/10 03:01:54;;;;;;;36.05;26.08;;;;;;;14.90;100.00;100763.59;2046947;29;20031;-62
2021/06/10 03:02:54;;;;;;;36.28;27.65;;;;;;;14.89;100.00;100761.03;2047892;28;20495;-62
2021/06/10 03:03:56;;;;;;;33.58;27.17;;;;;;;14.89;100.00;100761.03;2047919;28;20102;-62
2021/06/10 03:04:57;;;;;;;33.92;27.30;;;;;;;14.87;100.00;100760.22;2048157;28;20559;-62
2021/06/10 03:05:59;;;;;;;37.17;28.10;;;;;;;14.91;100.00;100760.06;2047956;28;20034;-62
2021/06/10 03:07:00;;;;;;;37.40;29.13;;;;;;;14.90;100.00;100762.72;2048093;28;20473;-62
2021/06/10 03:08:01;;;;;;;40.05;29.08;;;;;;;14.88;100.00;100757.53;2046775;28;20126;-63
2021/06/10 03:09:03;;;;;;;38.93;28.73;;;;;;;14.89;100.00;100756.63;2041485;29;20031;-63
2021/06/10 03:10:09;;;;;;;37.60;28.35;;;;;;;14.88;100.00;100754.91;2042760;29;20420;-62
2021/06/10 03:11:10;;;;;;;40.17;29.23;;;;;;;14.91;100.00;100762.69;2048451;29;20085;-62
2021/06/10 03:12:14;;;;;;;42.90;29.40;;;;;;;14.90;100.00;100758.34;2048144;29;20097;-62
2021/06/10 03:13:17;;;;;;;43.15;29.75;;;;;;;14.88;100.00;100757.53;2047566;28;20057;-62
2021/06/10 03:14:19;;;;;;;38.70;29.05;;;;;;;14.88;100.00;100754.91;2046121;29;20813;-62
2021/06/10 03:15:19;;;;;;;38.80;29.77;;;;;;;14.90;100.00;100758.34;2040124;29;20034;-63
2021/06/10 03:16:21;;;;;;;39.10;29.88;;;;;;;14.89;100.00;100756.63;2046798;29;20030;-62
2021/06/10 03:17:21;;;;;;;40.25;29.88;;;;;;;14.86;100.00;100754.13;2047950;29;20496;-62
2021/06/10 03:18:22;;;;;;;47.58;30.48;;;;;;;14.87;100.00;100760.22;2047802;29;20058;-62
2021/06/10 03:19:23;;;;;;;44.78;29.63;;;;;;;14.85;100.00;100765.53;2048091;29;20035;-62
2021/06/10 03:20:24;;;;;;;43.65;29.42;;;;;;;14.83;100.00;100770.00;2047280;28;20028;-62
2021/06/10 03:21:25;;;;;;;40.75;30.02;;;;;;;14.82;100.00;100763.03;2047973;29;20034;-62
2021/06/10 03:22:26;;;;;;;42.28;30.27;;;;;;;14.81;100.00;100758.69;2047356;29;20082;-62
2021/06/10 03:23:27;;;;;;;41.45;30.00;;;;;;;14.84;100.00;100761.19;2047465;29;20058;-62
2021/06/10 03:24:28;;;;;;;46.72;31.17;;;;;;;14.83;100.00;100756.88;2047668;29;20724;-62
2021/06/10 03:25:30;;;;;;;44.55;30.63;;;;;;;14.83;100.00;100762.13;2047223;29;20054;-62
2021/06/10 03:26:33;;;;;;;;;;;;;;;14.80;100.00;100759.63;2047490;29;20090;-62
2021/06/10 03:27:34;;;;;;;39.05;30.20;;;;;;;14.82;100.00;100754.28;2048092;28;19921;-62
2021/06/10 03:28:36;;;;;;;;;;;;;;;14.79;100.00;100755.28;2047257;29;20059;-62
2021/06/10 03:29:36;;;;;;;46.53;31.13;;;;;;;14.78;100.00;100762.31;2047253;29;19958;-62
2021/06/10 03:30:37;;;;;;;43.43;31.73;;;;;;;14.78;100.00;100759.69;2047831;29;20340;-63
2021/06/10 03:31:38;;;;;;;40.25;31.15;;;;;;;14.80;100.00;100757.00;2047769;28;20184;-63
2021/06/10 03:32:39;;;;;;;44.17;30.60;;;;;;;14.80;100.00;100767.50;2047239;28;20031;-62
2021/06/10 03:33:40;;;;;;;39.03;30.55;;;;;;;14.82;100.00;100770.03;2047923;29;20050;-62
2021/06/10 03:34:42;;;;;;;42.40;31.48;;;;;;;14.85;100.00;100770.78;2048044;29;20058;-62
2021/06/10 03:35:44;;;;;;;45.03;32.08;;;;;;;14.86;100.00;100763.78;2047606;29;20030;-62
2021/06/10 03:36:45;;;;;;;43.13;31.33;;;;;;;14.89;100.00;100766.28;2039775;29;20032;-63
2021/06/10 03:37:46;;;;;;;41.20;31.38;;;;;;;14.92;100.00;100766.16;2039810;29;20030;-62
2021/06/10 03:38:49;;;;;;;43.75;31.83;;;;;;;14.96;100.00;100766.88;2039499;29;20023;-62
2021/06/10 03:39:50;;;;;;;44.15;31.65;;;;;;;14.96;100.00;100769.50;2038731;29;20020;-62
2021/06/10 03:40:53;;;;;;;42.00;30.52;;;;;;;14.98;100.00;100771.16;2039207;29;20024;-62
2021/06/10 03:41:55;;;;;;;42.42;30.77;;;;;;;15.01;100.00;100770.19;2039158;29;20570;-62
2021/06/10 03:42:56;;;;;;;40.17;29.95;;;;;;;14.98;100.00;100773.78;2037793;29;20424;-62
2021/06/10 03:43:56;;;;;;;38.97;29.55;;;;;;;14.99;100.00;100772.84;2039470;29;20107;-62
2021/06/10 03:44:58;;;;;;;44.85;31.10;;;;;;;15.03;100.00;100766.56;2039808;29;20031;-62
2021/06/10 03:45:58;;;;;;;;;;;;;;;15.09;100.00;100773.34;2039973;29;20042;-62
2021/06/10 03:46:59;;;;;;;42.35;31.20;;;;;;;15.10;100.00;100772.44;2039470;29;19954;-63
2021/06/10 03:47:59;;;;;;;40.83;29.80;;;;;;;15.15;100.00;100773.09;2039120;29;20688;-63
2021/06/10 03:49:00;;;;;;;43.30;31.17;;;;;;;15.19;100.00;100773.81;2047388;28;20037;-62
2021/06/10 03:50:00;;;;;;;40.53;30.90;;;;;;;15.22;100.00;100769.34;2046552;29;20038;-62
2021/06/10 03:51:01;;;;;;;43.22;32.13;;;;;;;15.25;100.00;100777.06;2047811;28;20054;-62
2021/06/10 03:52:01;;;;;;;41.60;31.63;;;;;;;15.34;100.00;100780.22;2046610;29;20066;-62
2021/06/10 03:53:02;;;;;;;38.43;30.13;;;;;;;15.44;100.00;100781.56;2047355;29;20407;-62
2021/06/10 03:54:05;;;;;;;41.08;31.30;;;;;;;15.53;100.00;100778.56;2047383;29;20049;-62
2021/06/10 03:55:07;;;;;;;37.13;29.25;;;;;;;15.64;100.00;100783.38;2047175;29;20106;-62
2021/06/10 03:56:08;;;;;;;37.80;29.55;;;;;;;15.78;100.00;100777.53;2046829;28;20031;-62
2021/06/10 03:57:09;;;;;;;36.07;29.70;;;;;;;16.02;100.00;100785.28;2047401;28;20062;-62
2021/06/10 03:58:09;;;;;;;38.22;28.88;;;;;;;16.23;100.00;100777.38;2047297;29;20031;-62
2021/06/10 03:59:10;;;;;;;36.80;28.27;;;;;;;16.51;100.00;100781.41;2047133;28;20039;-62
2021/06/10 04:00:10;;;;;;;34.30;28.10;;;;;;;16.67;100.00;100773.63;2045718;28;20648;-59
2021/06/10 04:01:11;;;;;;;34.25;27.13;;;;;;;16.76;100.00;100779.34;2038518;29;20023;-59
2021/06/10 04:02:11;;;;;;;31.77;26.57;;;;;;;16.90;100.00;100778.69;2038508;29;20042;-59
2021/06/10 04:03:11;;;;;;;34.43;27.43;;;;;;;17.03;100.00;100773.72;2039088;29;20354;-59
2021/06/10 04:04:12;;;;;;;29.77;26.47;;;;;;;17.22;99.23;100780.72;2039382;29;20039;-59
2021/06/10 04:05:12;;;;;;;32.63;25.70;;;;;;;17.39;96.53;100772.81;2038120;29;20036;-59
2021/06/10 04:06:15;;;;;;;29.77;26.38;;;;;;;17.45;95.28;100781.38;2038298;29;20032;-59
2021/06/10 04:07:16;;;;;;;28.67;24.70;;;;;;;17.35;95.61;100776.56;2038892;29;20166;-59
2021/06/10 04:08:16;;;;;;;30.80;25.33;;;;;;;17.24;95.68;100786.75;2038880;29;20094;-59
2021/06/10 04:09:16;;;;;;;29.43;23.90;;;;;;;17.30;95.54;100775.91;2039192;29;20481;-59
2021/06/10 04:10:17;;;;;;;30.10;24.00;;;;;;;17.33;95.11;100778.41;2036839;29;20553;-59
2021/06/10 04:11:17;;;;;;;29.60;24.23;;;;;;;17.14;95.94;100777.59;2046006;29;20031;-59
2021/06/10 04:12:17;;;;;;;29.17;23.10;;;;;;;17.35;95.84;100779.19;2047157;29;20063;-59
2021/06/10 04:13:17;;;;;;;27.33;23.20;;;;;;;17.48;94.81;100779.44;2047298;29;20082;-59
2021/06/10 04:14:18;;;;;;;25.97;23.00;;;;;;;17.38;94.58;100776.41;2047467;29;20035;-59
2021/06/10 04:15:18;;;;;;;29.77;23.80;;;;;;;17.37;94.99;100774.72;2054469;28;20730;-59
2021/06/10 04:16:19;;;;;;;26.75;22.73;;;;;;;17.24;95.82;100773.59;2054609;28;20093;-59
2021/06/10 04:17:19;;;;;;;27.15;22.00;;;;;;;17.49;94.71;100780.28;2047338;28;20514;-59
2021/06/10 04:18:20;;;;;;;25.33;22.57;;;;;;;17.37;94.54;100774.72;2042105;29;20094;-59
2021/06/10 04:19:20;;;;;;;26.77;23.83;;;;;;;17.50;94.49;100771.44;2045746;29;20535;-59
2021/06/10 04:20:21;;;;;;;26.10;22.77;;;;;;;17.58;94.73;100780.69;2046857;29;20114;-59
2021/06/10 04:21:21;;;;;;;26.47;22.07;;;;;;;17.60;94.24;100777.94;2046347;29;20082;-59
2021/06/10 04:22:22;;;;;;;24.10;21.58;;;;;;;17.74;93.71;100785.16;2046803;28;20114;-59
2021/06/10 04:23:22;;;;;;;23.77;21.37;;;;;;;17.97;92.30;100775.25;2047114;29;20065;-59
2021/06/10 04:24:22;;;;;;;27.10;21.43;;;;;;;18.12;91.07;100784.16;2047292;29;20035;-59
2021/06/10 04:25:23;;;;;;;25.30;20.87;;;;;;;18.28;90.57;100779.75;2041227;29;20028;-59
2021/06/10 04:26:23;;;;;;;27.60;21.13;;;;;;;18.39;89.81;100779.19;2039612;29;20027;-59
2021/06/10 04:27:23;;;;;;;24.07;21.47;;;;;;;18.46;89.42;100782.34;2039061;29;20042;-59
2021/06/10 04:28:24;;;;;;;22.87;20.47;;;;;;;18.52;88.97;100782.00;2043985;29;20034;-59
2021/06/10 04:29:24;;;;;;;29.37;20.83;;;;;;;18.62;88.89;100787.63;2046757;28;20030;-59
2021/06/10 04:30:24;;;;;;;23.63;20.43;;;;;;;18.60;88.98;100785.09;2047373;28;20031;-59
2021/06/10 04:31:25;;;;;;;22.80;20.40;;;;;;;18.65;89.16;100785.69;2046303;28;20190;-59
2021/06/10 04:32:25;;;;;;;22.23;19.93;;;;;;;18.74;88.05;100779.03;2046164;28;20045;-59
2021/06/10 04:33:26;;;;;;;22.47;20.07;;;;;;;18.59;88.59;100788.66;2046319;29;20031;-59
2021/06/10 04:34:27;;;;;;;;;;;;;;;18.97;87.52;100783.06;2044811;29;20547;-59
2021/06/10 04:35:27;;;;;;;24.70;20.38;;;;;;;19.14;86.65;100781.28;2039684;28;19982;-59
2021/06/10 04:36:27;;;;;;;22.90;19.83;;;;;;;19.36;85.44;100782.66;2038591;29;20394;-59
2021/06/10 04:37:28;;;;;;;23.20;20.73;;;;;;;19.29;85.04;100780.38;2045357;29;20035;-59
2021/06/10 04:38:29;;;;;;;22.55;20.13;;;;;;;19.26;84.57;100774.44;2046575;29;20038;-59
2021/06/10 04:39:29;;;;;;;23.50;20.40;;;;;;;19.32;84.74;100781.16;2046427;29;20070;-59